Autaugaville, Alabama
Current Conditions -  °F | °C
As of 12:35 PM on Sunday 25 Jan 2015 (Local Time) from K1A9 Reporting Station
Clear Clear  
Wind Chill: 60°   Ceiling: Unl
Heat Index: 60°   Visibility: 10mi
Dew Point: 35°   Wind: 15mph
Humidity: 39%   Direction: 200°SSW
Pressure: 29.85"   Gusts: 21mph
Location:  32.43°N, 86.65°W
Report Text: K1A9 251835Z AUTO 20013G18KT 10SM CLR 16/02 A2985 RMK AO2 T01560016
Loading
Personal Weather Stations






























Interactive Weather Map New forecast layout! Learn more

10-Day Weather Forecast

Advertisements
Track Severe Weather on mobile